Odi Airport [CLOSED]

Jump to: basic info | weather | comments

Related pages: nearby airports | nearby navaids | notams | map

Basic information (top)

Codes: FAIO
Location: lon -25.549999, lat 27.933001, elev 3,862 ft / 1,177 m msl
Status: closed

Weather (top)

Current conditions for Wonderboom Airport 17nm (31km) ESE (rec'd 2015/01/30 19:00Z):

FAWB 301900Z AUTO 00000KT //// // ////// 20/16 Q1018

Airport forecast for Wonderboom Airport 17nm (31km) ESE (rec'd 2015/01/29 07:00Z):

TAF FAWB 290600Z 2907/2918 06005KT 9999 SCT020 
      BECMG 2907/2909 35007KT SCT035 PROB40 
      TEMPO 2912/2918 5000 TSRA FEW035CB TX25/2913ZTN18/2918Z

Latest comments (top)

Odi Raceway: NOT AN AIRPORT ANYMORE. HAS BEEN A DRAG ... [read]

Runway Details: Runways: 10 & 29 Runway Length = ... [read]

More... (top)

See also NOTAMs and nearby airports and navaids, or visit the Odi Airport page at the main OurAirports website..